sensor_id;sensor_type;location;lat;lon;timestamp;pressure;altitude;pressure_sealevel;temperature;humidity
7376;BME280;3728;42.266;24.944;2022-11-06T00:00:29;99271.41;;;14.35;100.00
7376;BME280;3728;42.266;24.944;2022-11-06T00:02:59;99269.44;;;14.32;100.00
7376;BME280;3728;42.266;24.944;2022-11-06T00:05:27;99278.13;;;14.33;100.00
7376;BME280;3728;42.266;24.944;2022-11-06T00:08:14;99277.88;;;14.26;100.00
7376;BME280;3728;42.266;24.944;2022-11-06T00:10:51;99270.97;;;14.21;100.00
7376;BME280;3728;42.266;24.944;2022-11-06T00:13:18;99266.50;;;14.34;100.00
7376;BME280;3728;42.266;24.944;2022-11-06T00:15:46;99271.94;;;14.29;100.00
7376;BME280;3728;42.266;24.944;2022-11-06T00:18:13;99267.00;;;14.15;100.00
7376;BME280;3728;42.266;24.944;2022-11-06T00:20:41;99270.09;;;14.17;100.00
7376;BME280;3728;42.266;24.944;2022-11-06T00:23:09;99271.81;;;14.25;100.00
7376;BME280;3728;42.266;24.944;2022-11-06T00:25:39;99274.91;;;14.27;100.00
7376;BME280;3728;42.266;24.944;2022-11-06T00:28:07;99267.22;;;14.10;100.00
7376;BME280;3728;42.266;24.944;2022-11-06T00:30:35;99272.72;;;14.17;100.00
7376;BME280;3728;42.266;24.944;2022-11-06T00:33:03;99271.16;;;14.28;100.00
7376;BME280;3728;42.266;24.944;2022-11-06T00:35:31;99268.31;;;14.09;100.00
7376;BME280;3728;42.266;24.944;2022-11-06T00:37:58;99266.13;;;14.11;100.00
7376;BME280;3728;42.266;24.944;2022-11-06T00:40:26;99266.00;;;14.08;100.00
7376;BME280;3728;42.266;24.944;2022-11-06T00:42:54;99261.59;;;14.00;100.00
7376;BME280;3728;42.266;24.944;2022-11-06T00:45:23;99267.66;;;14.00;100.00
7376;BME280;3728;42.266;24.944;2022-11-06T00:47:51;99260.41;;;13.97;100.00
7376;BME280;3728;42.266;24.944;2022-11-06T00:50:19;99262.69;;;13.87;100.00
7376;BME280;3728;42.266;24.944;2022-11-06T00:52:46;99251.16;;;13.79;100.00
7376;BME280;3728;42.266;24.944;2022-11-06T00:55:14;99258.84;;;13.84;100.00
7376;BME280;3728;42.266;24.944;2022-11-06T00:57:41;99264.75;;;13.81;100.00
7376;BME280;3728;42.266;24.944;2022-11-06T01:00:09;99260.16;;;13.78;100.00
7376;BME280;3728;42.266;24.944;2022-11-06T01:02:37;99258.41;;;13.70;100.00
7376;BME280;3728;42.266;24.944;2022-11-06T01:05:08;99262.97;;;13.73;100.00
7376;BME280;3728;42.266;24.944;2022-11-06T01:07:35;99265.75;;;13.77;100.00
7376;BME280;3728;42.266;24.944;2022-11-06T01:10:04;99262.53;;;13.71;100.00
7376;BME280;3728;42.266;24.944;2022-11-06T01:12:33;99267.94;;;13.75;100.00
7376;BME280;3728;42.266;24.944;2022-11-06T01:15:00;99272.03;;;13.84;100.00
7376;BME280;3728;42.266;24.944;2022-11-06T01:17:28;99266.78;;;13.96;100.00
7376;BME280;3728;42.266;24.944;2022-11-06T01:19:56;99265.09;;;13.80;100.00
7376;BME280;3728;42.266;24.944;2022-11-06T01:22:23;99261.88;;;13.62;100.00
7376;BME280;3728;42.266;24.944;2022-11-06T01:24:51;99255.69;;;13.46;100.00
7376;BME280;3728;42.266;24.944;2022-11-06T01:27:18;99257.97;;;13.35;100.00
7376;BME280;3728;42.266;24.944;2022-11-06T01:29:52;99267.06;;;13.38;100.00
7376;BME280;3728;42.266;24.944;2022-11-06T01:32:20;99260.47;;;13.32;100.00
7376;BME280;3728;42.266;24.944;2022-11-06T01:34:49;99261.84;;;13.17;100.00
7376;BME280;3728;42.266;24.944;2022-11-06T01:37:17;99264.97;;;13.11;100.00
7376;BME280;3728;42.266;24.944;2022-11-06T01:39:45;99269.34;;;13.07;100.00
7376;BME280;3728;42.266;24.944;2022-11-06T01:42:14;99263.75;;;13.08;100.00
7376;BME280;3728;42.266;24.944;2022-11-06T01:47:33;99257.84;;;12.90;100.00
7376;BME280;3728;42.266;24.944;2022-11-06T01:50:08;99265.78;;;13.02;100.00
7376;BME280;3728;42.266;24.944;2022-11-06T01:52:38;99260.78;;;12.89;100.00
7376;BME280;3728;42.266;24.944;2022-11-06T01:55:15;99253.03;;;12.72;100.00
7376;BME280;3728;42.266;24.944;2022-11-06T01:57:47;99251.34;;;12.67;100.00
7376;BME280;3728;42.266;24.944;2022-11-06T02:00:15;99247.03;;;12.71;100.00
7376;BME280;3728;42.266;24.944;2022-11-06T02:02:43;99249.06;;;12.66;100.00
7376;BME280;3728;42.266;24.944;2022-11-06T02:05:11;99257.09;;;12.69;100.00
7376;BME280;3728;42.266;24.944;2022-11-06T02:07:39;99246.63;;;12.81;100.00
7376;BME280;3728;42.266;24.944;2022-11-06T02:10:09;99249.75;;;12.95;100.00
7376;BME280;3728;42.266;24.944;2022-11-06T02:18:45;99235.53;;;13.50;100.00
7376;BME280;3728;42.266;24.944;2022-11-06T02:21:48;99237.03;;;13.39;100.00
7376;BME280;3728;42.266;24.944;2022-11-06T02:24:42;99238.59;;;13.19;100.00
7376;BME280;3728;42.266;24.944;2022-11-06T02:27:29;99239.72;;;13.18;100.00
7376;BME280;3728;42.266;24.944;2022-11-06T02:30:07;99243.88;;;13.19;100.00
7376;BME280;3728;42.266;24.944;2022-11-06T02:32:56;99245.91;;;13.34;100.00
7376;BME280;3728;42.266;24.944;2022-11-06T02:35:27;99252.72;;;13.47;100.00
7376;BME280;3728;42.266;24.944;2022-11-06T02:38:10;99256.44;;;13.79;98.74
7376;BME280;3728;42.266;24.944;2022-11-06T02:40:48;99255.84;;;13.29;98.18
7376;BME280;3728;42.266;24.944;2022-11-06T02:43:25;99265.19;;;13.06;98.93
7376;BME280;3728;42.266;24.944;2022-11-06T02:46:06;99258.94;;;12.89;98.71
7376;BME280;3728;42.266;24.944;2022-11-06T02:48:44;99255.50;;;12.48;100.00
7376;BME280;3728;42.266;24.944;2022-11-06T02:51:17;99254.56;;;12.23;100.00
7376;BME280;3728;42.266;24.944;2022-11-06T02:53:48;99269.16;;;12.41;100.00
7376;BME280;3728;42.266;24.944;2022-11-06T02:56:23;99267.22;;;13.00;100.00
7376;BME280;3728;42.266;24.944;2022-11-06T02:59:02;99274.56;;;13.48;100.00
7376;BME280;3728;42.266;24.944;2022-11-06T03:01:36;99259.63;;;13.85;100.00
7376;BME280;3728;42.266;24.944;2022-11-06T03:04:20;99263.00;;;13.85;100.00
7376;BME280;3728;42.266;24.944;2022-11-06T03:07:07;99255.81;;;13.94;100.00
7376;BME280;3728;42.266;24.944;2022-11-06T03:09:40;99267.31;;;14.14;100.00
7376;BME280;3728;42.266;24.944;2022-11-06T03:12:29;99271.69;;;13.86;100.00
7376;BME280;3728;42.266;24.944;2022-11-06T03:18:22;99281.31;;;12.95;100.00
7376;BME280;3728;42.266;24.944;2022-11-06T03:21:04;99272.91;;;12.81;100.00
7376;BME280;3728;42.266;24.944;2022-11-06T03:23:47;99282.88;;;12.67;100.00
7376;BME280;3728;42.266;24.944;2022-11-06T03:26:24;99285.63;;;12.50;100.00
7376;BME280;3728;42.266;24.944;2022-11-06T03:32:04;99278.91;;;12.32;100.00
7376;BME280;3728;42.266;24.944;2022-11-06T03:34:49;99278.72;;;12.37;100.00
7376;BME280;3728;42.266;24.944;2022-11-06T03:37:25;99281.34;;;12.37;100.00
7376;BME280;3728;42.266;24.944;2022-11-06T03:40:02;99283.63;;;12.47;100.00
7376;BME280;3728;42.266;24.944;2022-11-06T03:42:35;99289.16;;;12.54;100.00
7376;BME280;3728;42.266;24.944;2022-11-06T03:45:08;99288.56;;;12.49;100.00
7376;BME280;3728;42.266;24.944;2022-11-06T03:47:44;99297.56;;;12.68;100.00
7376;BME280;3728;42.266;24.944;2022-11-06T03:50:29;99287.97;;;12.72;100.00
7376;BME280;3728;42.266;24.944;2022-11-06T03:55:41;99286.09;;;12.73;100.00
7376;BME280;3728;42.266;24.944;2022-11-06T03:58:19;99275.47;;;12.69;100.00
7376;BME280;3728;42.266;24.944;2022-11-06T04:00:50;99277.06;;;12.62;100.00
7376;BME280;3728;42.266;24.944;2022-11-06T04:03:30;99270.34;;;12.73;100.00
7376;BME280;3728;42.266;24.944;2022-11-06T04:06:31;99279.03;;;13.15;100.00
7376;BME280;3728;42.266;24.944;2022-11-06T04:09:05;99275.09;;;13.41;100.00
7376;BME280;3728;42.266;24.944;2022-11-06T04:11:55;99276.75;;;13.46;100.00
7376;BME280;3728;42.266;24.944;2022-11-06T04:14:46;99280.16;;;13.91;100.00
7376;BME280;3728;42.266;24.944;2022-11-06T04:17:17;99283.94;;;13.69;100.00
7376;BME280;3728;42.266;24.944;2022-11-06T04:19:50;99281.16;;;13.54;100.00
7376;BME280;3728;42.266;24.944;2022-11-06T04:28:36;99274.94;;;13.38;100.00
7376;BME280;3728;42.266;24.944;2022-11-06T04:31:21;99275.66;;;13.47;100.00
7376;BME280;3728;42.266;24.944;2022-11-06T04:39:57;99280.72;;;12.69;100.00
7376;BME280;3728;42.266;24.944;2022-11-06T04:42:42;99280.25;;;12.67;100.00
7376;BME280;3728;42.266;24.944;2022-11-06T04:45:26;99292.84;;;13.12;100.00
7376;BME280;3728;42.266;24.944;2022-11-06T04:47:55;99283.75;;;12.80;100.00
7376;BME280;3728;42.266;24.944;2022-11-06T04:50:24;99285.41;;;12.84;100.00
7376;BME280;3728;42.266;24.944;2022-11-06T04:52:53;99287.06;;;12.68;100.00
7376;BME280;3728;42.266;24.944;2022-11-06T04:55:22;99296.44;;;12.78;100.00
7376;BME280;3728;42.266;24.944;2022-11-06T04:57:49;99289.88;;;12.63;100.00
7376;BME280;3728;42.266;24.944;2022-11-06T05:00:23;99283.81;;;12.71;100.00
7376;BME280;3728;42.266;24.944;2022-11-06T05:02:50;99288.13;;;12.67;100.00
7376;BME280;3728;42.266;24.944;2022-11-06T05:05:18;99275.91;;;12.71;100.00
7376;BME280;3728;42.266;24.944;2022-11-06T05:07:45;99281.19;;;12.71;100.00
7376;BME280;3728;42.266;24.944;2022-11-06T05:10:13;99289.94;;;12.75;100.00
7376;BME280;3728;42.266;24.944;2022-11-06T05:12:40;99288.38;;;12.83;100.00
7376;BME280;3728;42.266;24.944;2022-11-06T05:15:08;99293.63;;;12.83;100.00
7376;BME280;3728;42.266;24.944;2022-11-06T05:17:35;99291.19;;;12.78;100.00
7376;BME280;3728;42.266;24.944;2022-11-06T05:20:04;99297.69;;;12.72;100.00
7376;BME280;3728;42.266;24.944;2022-11-06T05:22:31;99296.69;;;12.64;100.00
7376;BME280;3728;42.266;24.944;2022-11-06T05:25:20;99307.22;;;12.56;100.00
7376;BME280;3728;42.266;24.944;2022-11-06T05:27:48;99302.88;;;12.60;100.00
7376;BME280;3728;42.266;24.944;2022-11-06T05:30:16;99306.06;;;12.65;100.00
7376;BME280;3728;42.266;24.944;2022-11-06T05:32:43;99313.47;;;12.72;100.00
7376;BME280;3728;42.266;24.944;2022-11-06T05:35:11;99313.16;;;12.73;100.00
7376;BME280;3728;42.266;24.944;2022-11-06T05:37:40;99323.59;;;12.82;100.00
7376;BME280;3728;42.266;24.944;2022-11-06T05:40:07;99319.84;;;12.91;100.00
7376;BME280;3728;42.266;24.944;2022-11-06T05:42:37;99319.38;;;12.89;100.00
7376;BME280;3728;42.266;24.944;2022-11-06T05:45:08;99319.91;;;13.03;100.00
7376;BME280;3728;42.266;24.944;2022-11-06T05:47:39;99316.19;;;13.04;100.00
7376;BME280;3728;42.266;24.944;2022-11-06T05:50:08;99320.69;;;13.04;100.00
7376;BME280;3728;42.266;24.944;2022-11-06T05:52:36;99316.94;;;13.14;100.00
7376;BME280;3728;42.266;24.944;2022-11-06T05:55:05;99323.78;;;13.27;100.00
7376;BME280;3728;42.266;24.944;2022-11-06T05:57:40;99332.38;;;13.36;100.00
7376;BME280;3728;42.266;24.944;2022-11-06T06:00:08;99336.59;;;13.49;100.00
7376;BME280;3728;42.266;24.944;2022-11-06T06:02:41;99345.31;;;13.61;100.00
7376;BME280;3728;42.266;24.944;2022-11-06T06:05:09;99349.00;;;13.81;100.00
7376;BME280;3728;42.266;24.944;2022-11-06T06:07:37;99354.63;;;13.92;100.00
7376;BME280;3728;42.266;24.944;2022-11-06T06:10:05;99368.34;;;13.97;100.00
7376;BME280;3728;42.266;24.944;2022-11-06T06:12:33;99369.69;;;14.03;100.00
7376;BME280;3728;42.266;24.944;2022-11-06T06:15:01;99371.16;;;14.13;100.00
7376;BME280;3728;42.266;24.944;2022-11-06T06:17:29;99378.16;;;14.21;100.00
7376;BME280;3728;42.266;24.944;2022-11-06T06:19:56;99385.88;;;14.26;100.00
7376;BME280;3728;42.266;24.944;2022-11-06T06:22:24;99384.44;;;14.28;100.00
7376;BME280;3728;42.266;24.944;2022-11-06T06:24:51;99384.81;;;14.39;100.00
7376;BME280;3728;42.266;24.944;2022-11-06T06:27:19;99390.84;;;14.39;100.00
7376;BME280;3728;42.266;24.944;2022-11-06T06:29:47;99394.03;;;14.45;100.00
7376;BME280;3728;42.266;24.944;2022-11-06T06:32:14;99402.63;;;14.54;100.00
7376;BME280;3728;42.266;24.944;2022-11-06T06:34:42;99402.84;;;14.61;100.00
7376;BME280;3728;42.266;24.944;2022-11-06T06:37:09;99403.72;;;14.65;100.00
7376;BME280;3728;42.266;24.944;2022-11-06T06:39:41;99413.28;;;14.82;100.00
7376;BME280;3728;42.266;24.944;2022-11-06T06:42:09;99405.72;;;14.92;100.00
7376;BME280;3728;42.266;24.944;2022-11-06T06:44:37;99411.19;;;15.12;100.00
7376;BME280;3728;42.266;24.944;2022-11-06T06:47:04;99409.97;;;15.21;100.00
7376;BME280;3728;42.266;24.944;2022-11-06T06:49:34;99411.06;;;15.44;100.00
7376;BME280;3728;42.266;24.944;2022-11-06T06:52:03;99411.91;;;15.48;100.00
7376;BME280;3728;42.266;24.944;2022-11-06T06:54:31;99411.41;;;15.70;100.00
7376;BME280;3728;42.266;24.944;2022-11-06T06:56:58;99409.19;;;15.72;100.00
7376;BME280;3728;42.266;24.944;2022-11-06T06:59:29;99417.53;;;15.74;100.00
7376;BME280;3728;42.266;24.944;2022-11-06T07:01:57;99414.47;;;15.72;100.00
7376;BME280;3728;42.266;24.944;2022-11-06T07:04:24;99416.66;;;15.83;100.00
7376;BME280;3728;42.266;24.944;2022-11-06T07:06:54;99422.38;;;15.85;100.00
7376;BME280;3728;42.266;24.944;2022-11-06T07:09:22;99419.81;;;15.88;100.00
7376;BME280;3728;42.266;24.944;2022-11-06T07:11:49;99416.91;;;15.93;100.00
7376;BME280;3728;42.266;24.944;2022-11-06T07:14:17;99419.38;;;16.29;100.00
7376;BME280;3728;42.266;24.944;2022-11-06T07:16:44;99425.91;;;16.63;100.00
7376;BME280;3728;42.266;24.944;2022-11-06T07:19:20;99435.94;;;16.89;100.00
7376;BME280;3728;42.266;24.944;2022-11-06T07:21:51;99428.44;;;17.06;100.00
7376;BME280;3728;42.266;24.944;2022-11-06T07:24:21;99431.59;;;17.31;97.36
7376;BME280;3728;42.266;24.944;2022-11-06T07:26:49;99438.16;;;17.53;93.27
7376;BME280;3728;42.266;24.944;2022-11-06T07:29:16;99442.22;;;17.85;90.40
7376;BME280;3728;42.266;24.944;2022-11-06T07:31:44;99442.78;;;17.75;90.18
7376;BME280;3728;42.266;24.944;2022-11-06T07:34:11;99442.78;;;17.94;88.85
7376;BME280;3728;42.266;24.944;2022-11-06T07:36:39;99440.72;;;17.88;88.17
7376;BME280;3728;42.266;24.944;2022-11-06T07:39:06;99435.16;;;17.93;87.25
7376;BME280;3728;42.266;24.944;2022-11-06T07:41:34;99438.03;;;17.84;88.22
7376;BME280;3728;42.266;24.944;2022-11-06T07:44:02;99433.78;;;17.80;87.97
7376;BME280;3728;42.266;24.944;2022-11-06T07:46:30;99431.81;;;17.96;86.70
7376;BME280;3728;42.266;24.944;2022-11-06T07:48:57;99428.53;;;17.83;86.94
7376;BME280;3728;42.266;24.944;2022-11-06T07:51:25;99431.50;;;18.20;85.48
7376;BME280;3728;42.266;24.944;2022-11-06T07:53:52;99428.78;;;18.16;85.36
7376;BME280;3728;42.266;24.944;2022-11-06T07:56:20;99430.84;;;18.26;84.27
7376;BME280;3728;42.266;24.944;2022-11-06T07:58:47;99425.25;;;18.09;85.57
7376;BME280;3728;42.266;24.944;2022-11-06T08:01:17;99435.13;;;18.12;84.63
7376;BME280;3728;42.266;24.944;2022-11-06T08:03:45;99436.25;;;18.53;81.99
7376;BME280;3728;42.266;24.944;2022-11-06T08:06:12;99437.19;;;18.41;82.60
7376;BME280;3728;42.266;24.944;2022-11-06T08:08:40;99442.91;;;18.66;80.63
7376;BME280;3728;42.266;24.944;2022-11-06T08:11:09;99449.16;;;18.77;79.84
7376;BME280;3728;42.266;24.944;2022-11-06T08:13:37;99447.59;;;18.72;79.89
7376;BME280;3728;42.266;24.944;2022-11-06T08:16:10;99443.19;;;18.83;78.63
7376;BME280;3728;42.266;24.944;2022-11-06T08:18:39;99442.44;;;18.83;78.84
7376;BME280;3728;42.266;24.944;2022-11-06T08:21:07;99448.44;;;18.80;79.11
7376;BME280;3728;42.266;24.944;2022-11-06T08:23:35;99451.00;;;18.99;77.68
7376;BME280;3728;42.266;24.944;2022-11-06T08:26:05;99450.59;;;18.97;77.25
7376;BME280;3728;42.266;24.944;2022-11-06T08:28:33;99452.44;;;18.93;77.34
7376;BME280;3728;42.266;24.944;2022-11-06T08:31:03;99456.38;;;19.02;76.86
7376;BME280;3728;42.266;24.944;2022-11-06T08:33:32;99461.03;;;19.09;76.95
7376;BME280;3728;42.266;24.944;2022-11-06T08:36:02;99458.66;;;19.04;77.24
7376;BME280;3728;42.266;24.944;2022-11-06T08:38:31;99468.16;;;18.79;78.36
7376;BME280;3728;42.266;24.944;2022-11-06T08:41:10;99476.44;;;19.00;78.17
7376;BME280;3728;42.266;24.944;2022-11-06T08:43:39;99481.63;;;19.42;74.83
7376;BME280;3728;42.266;24.944;2022-11-06T08:46:09;99486.31;;;19.52;74.80
7376;BME280;3728;42.266;24.944;2022-11-06T08:48:37;99490.53;;;19.30;75.25
7376;BME280;3728;42.266;24.944;2022-11-06T08:51:05;99495.91;;;19.07;76.81
7376;BME280;3728;42.266;24.944;2022-11-06T08:53:33;99498.91;;;19.88;73.42
7376;BME280;3728;42.266;24.944;2022-11-06T08:56:02;99513.59;;;19.78;72.83
7376;BME280;3728;42.266;24.944;2022-11-06T08:58:30;99511.78;;;19.83;72.93
7376;BME280;3728;42.266;24.944;2022-11-06T09:00:58;99524.19;;;19.75;74.67
7376;BME280;3728;42.266;24.944;2022-11-06T09:03:26;99523.38;;;18.73;77.23
7376;BME280;3728;42.266;24.944;2022-11-06T09:05:54;99523.38;;;18.51;77.68
7376;BME280;3728;42.266;24.944;2022-11-06T09:08:22;99527.69;;;18.01;79.52
7376;BME280;3728;42.266;24.944;2022-11-06T09:10:50;99538.16;;;17.44;81.97
7376;BME280;3728;42.266;24.944;2022-11-06T09:13:26;99546.38;;;17.07;83.09
7376;BME280;3728;42.266;24.944;2022-11-06T09:15:54;99535.69;;;16.45;85.66
7376;BME280;3728;42.266;24.944;2022-11-06T09:18:22;99542.25;;;16.63;85.32
7376;BME280;3728;42.266;24.944;2022-11-06T09:20:53;99538.28;;;16.41;86.59
7376;BME280;3728;42.266;24.944;2022-11-06T09:23:22;99548.69;;;16.50;87.60
7376;BME280;3728;42.266;24.944;2022-11-06T09:25:50;99546.50;;;16.52;87.55
7376;BME280;3728;42.266;24.944;2022-11-06T09:28:21;99545.91;;;16.31;89.07
7376;BME280;3728;42.266;24.944;2022-11-06T09:30:49;99547.84;;;17.05;84.79
7376;BME280;3728;42.266;24.944;2022-11-06T09:33:17;99546.13;;;17.13;82.49
7376;BME280;3728;42.266;24.944;2022-11-06T09:35:45;99544.09;;;16.90;85.46
7376;BME280;3728;42.266;24.944;2022-11-06T09:38:13;99552.69;;;16.87;85.12
7376;BME280;3728;42.266;24.944;2022-11-06T09:46:44;99531.63;;;17.06;83.24
7376;BME280;3728;42.266;24.944;2022-11-06T09:49:32;99532.31;;;16.88;85.17
7376;BME280;3728;42.266;24.944;2022-11-06T09:52:37;99513.09;;;16.75;85.21
7376;BME280;3728;42.266;24.944;2022-11-06T09:55:21;99512.84;;;16.80;86.00
7376;BME280;3728;42.266;24.944;2022-11-06T09:58:10;99504.06;;;16.76;85.29
7376;BME280;3728;42.266;24.944;2022-11-06T10:00:42;99501.56;;;16.68;86.04
7376;BME280;3728;42.266;24.944;2022-11-06T10:03:15;99492.53;;;16.69;87.22
7376;BME280;3728;42.266;24.944;2022-11-06T10:05:52;99491.50;;;16.89;86.49
7376;BME280;3728;42.266;24.944;2022-11-06T10:08:23;99503.03;;;16.96;85.90
7376;BME280;3728;42.266;24.944;2022-11-06T10:19:24;99479.47;;;17.57;83.71
7376;BME280;3728;42.266;24.944;2022-11-06T10:22:39;99477.34;;;17.63;83.53
7376;BME280;3728;42.266;24.944;2022-11-06T10:25:21;99479.84;;;17.75;83.05
7376;BME280;3728;42.266;24.944;2022-11-06T10:34:13;99495.56;;;18.64;78.43
7376;BME280;3728;42.266;24.944;2022-11-06T10:36:53;99487.72;;;18.71;77.07
7376;BME280;3728;42.266;24.944;2022-11-06T10:39:30;99487.59;;;18.64;76.79
7376;BME280;3728;42.266;24.944;2022-11-06T10:42:14;99485.59;;;18.57;77.38
7376;BME280;3728;42.266;24.944;2022-11-06T10:44:48;99482.13;;;18.53;78.04
7376;BME280;3728;42.266;24.944;2022-11-06T10:47:33;99474.16;;;18.53;78.90
7376;BME280;3728;42.266;24.944;2022-11-06T10:50:10;99478.81;;;18.60;77.46
7376;BME280;3728;42.266;24.944;2022-11-06T10:55:40;99476.09;;;18.56;77.39
7376;BME280;3728;42.266;24.944;2022-11-06T10:58:16;99469.97;;;18.52;78.04
7376;BME280;3728;42.266;24.944;2022-11-06T11:00:48;99468.94;;;18.79;75.78
7376;BME280;3728;42.266;24.944;2022-11-06T11:03:25;99475.63;;;18.51;76.93
7376;BME280;3728;42.266;24.944;2022-11-06T11:05:57;99465.81;;;18.32;78.75
7376;BME280;3728;42.266;24.944;2022-11-06T11:11:17;99467.00;;;18.34;79.53
7376;BME280;3728;42.266;24.944;2022-11-06T11:14:14;99466.56;;;18.32;79.84
7376;BME280;3728;42.266;24.944;2022-11-06T11:16:51;99466.13;;;18.50;79.21
7376;BME280;3728;42.266;24.944;2022-11-06T11:19:37;99463.97;;;18.55;77.50
7376;BME280;3728;42.266;24.944;2022-11-06T11:22:17;99457.88;;;19.00;75.91
7376;BME280;3728;42.266;24.944;2022-11-06T11:25:02;99455.38;;;18.42;77.91
7376;BME280;3728;42.266;24.944;2022-11-06T11:27:45;99453.50;;;18.43;78.74
7376;BME280;3728;42.266;24.944;2022-11-06T11:30:21;99451.13;;;18.57;78.54
7376;BME280;3728;42.266;24.944;2022-11-06T11:32:53;99441.63;;;18.79;77.94
7376;BME280;3728;42.266;24.944;2022-11-06T11:35:29;99435.09;;;18.99;78.17
7376;BME280;3728;42.266;24.944;2022-11-06T11:38:07;99446.78;;;19.21;76.34
7376;BME280;3728;42.266;24.944;2022-11-06T11:40:39;99444.44;;;19.42;74.79
7376;BME280;3728;42.266;24.944;2022-11-06T11:43:26;99441.75;;;19.68;74.09
7376;BME280;3728;42.266;24.944;2022-11-06T11:46:21;99441.66;;;19.94;72.32
7376;BME280;3728;42.266;24.944;2022-11-06T11:48:53;99438.28;;;19.97;72.10
7376;BME280;3728;42.266;24.944;2022-11-06T11:51:31;99453.63;;;20.11;72.22
7376;BME280;3728;42.266;24.944;2022-11-06T11:59:44;99445.03;;;21.91;63.55
7376;BME280;3728;42.266;24.944;2022-11-06T12:02:41;99434.00;;;22.00;61.36
7376;BME280;3728;42.266;24.944;2022-11-06T12:05:32;99444.19;;;21.83;61.44
7376;BME280;3728;42.266;24.944;2022-11-06T12:08:05;99441.59;;;21.91;61.23
7376;BME280;3728;42.266;24.944;2022-11-06T12:10:42;99442.94;;;21.49;62.65
7376;BME280;3728;42.266;24.944;2022-11-06T12:23:58;99433.56;;;21.08;67.87
7376;BME280;3728;42.266;24.944;2022-11-06T12:26:52;99448.63;;;21.41;66.32
7376;BME280;3728;42.266;24.944;2022-11-06T12:29:29;99444.75;;;21.35;67.95
7376;BME280;3728;42.266;24.944;2022-11-06T12:32:17;99444.34;;;22.26;65.18
7376;BME280;3728;42.266;24.944;2022-11-06T12:41:30;99436.34;;;23.14;61.62
7376;BME280;3728;42.266;24.944;2022-11-06T12:44:08;99451.22;;;23.36;60.93
7376;BME280;3728;42.266;24.944;2022-11-06T12:46:54;99447.81;;;22.76;64.20
7376;BME280;3728;42.266;24.944;2022-11-06T13:03:59;99439.63;;;21.77;69.54
7376;BME280;3728;42.266;24.944;2022-11-06T13:19:08;99436.41;;;21.40;72.28
7376;BME280;3728;42.266;24.944;2022-11-06T13:27:42;99436.50;;;21.57;70.18
7376;BME280;3728;42.266;24.944;2022-11-06T13:30:21;99422.22;;;21.15;71.90
7376;BME280;3728;42.266;24.944;2022-11-06T13:35:54;99429.53;;;21.35;70.95
7376;BME280;3728;42.266;24.944;2022-11-06T13:38:28;99432.91;;;21.25;70.82
7376;BME280;3728;42.266;24.944;2022-11-06T13:41:12;99439.78;;;21.30;71.04
7376;BME280;3728;42.266;24.944;2022-11-06T13:43:46;99437.47;;;21.21;71.05
7376;BME280;3728;42.266;24.944;2022-11-06T13:52:09;99439.88;;;20.89;70.65
7376;BME280;3728;42.266;24.944;2022-11-06T13:58:21;99443.19;;;19.95;75.07
7376;BME280;3728;42.266;24.944;2022-11-06T14:01:32;99445.25;;;19.75;77.11
7376;BME280;3728;42.266;24.944;2022-11-06T14:07:26;99457.88;;;20.19;75.25
7376;BME280;3728;42.266;24.944;2022-11-06T14:10:20;99455.59;;;20.21;74.12
7376;BME280;3728;42.266;24.944;2022-11-06T14:12:49;99453.63;;;20.14;74.65
7376;BME280;3728;42.266;24.944;2022-11-06T14:18:05;99456.47;;;20.28;73.38
7376;BME280;3728;42.266;24.944;2022-11-06T14:20:38;99453.31;;;20.19;73.15
7376;BME280;3728;42.266;24.944;2022-11-06T14:26:16;99451.09;;;19.58;76.08
7376;BME280;3728;42.266;24.944;2022-11-06T14:34:47;99445.50;;;18.85;80.77
7376;BME280;3728;42.266;24.944;2022-11-06T14:40:11;99449.88;;;18.51;82.01
7376;BME280;3728;42.266;24.944;2022-11-06T14:42:42;99438.78;;;18.46;83.18
7376;BME280;3728;42.266;24.944;2022-11-06T14:45:19;99450.59;;;18.48;83.55
7376;BME280;3728;42.266;24.944;2022-11-06T14:47:51;99441.72;;;18.40;82.67
7376;BME280;3728;42.266;24.944;2022-11-06T14:50:27;99444.31;;;18.37;83.60
7376;BME280;3728;42.266;24.944;2022-11-06T14:53:17;99446.75;;;18.04;84.97
7376;BME280;3728;42.266;24.944;2022-11-06T14:56:03;99447.97;;;17.71;86.43
7376;BME280;3728;42.266;24.944;2022-11-06T14:58:35;99448.91;;;17.44;87.80
7376;BME280;3728;42.266;24.944;2022-11-06T15:04:05;99452.13;;;17.19;89.92
7376;BME280;3728;42.266;24.944;2022-11-06T15:07:24;99450.19;;;17.16;91.72
7376;BME280;3728;42.266;24.944;2022-11-06T15:15:52;99454.06;;;17.02;93.76
7376;BME280;3728;42.266;24.944;2022-11-06T15:18:24;99452.25;;;16.75;95.67
7376;BME280;3728;42.266;24.944;2022-11-06T15:20:56;99460.03;;;16.68;97.18
7376;BME280;3728;42.266;24.944;2022-11-06T15:23:52;99462.06;;;16.75;97.41
7376;BME280;3728;42.266;24.944;2022-11-06T15:26:40;99465.22;;;16.80;97.37
7376;BME280;3728;42.266;24.944;2022-11-06T15:31:57;99466.19;;;16.44;100.00
7376;BME280;3728;42.266;24.944;2022-11-06T15:34:35;99476.88;;;16.48;100.00
7376;BME280;3728;42.266;24.944;2022-11-06T15:37:15;99478.06;;;16.51;100.00
7376;BME280;3728;42.266;24.944;2022-11-06T15:39:51;99481.88;;;16.37;100.00
7376;BME280;3728;42.266;24.944;2022-11-06T15:42:31;99479.22;;;16.37;100.00
7376;BME280;3728;42.266;24.944;2022-11-06T15:45:18;99479.41;;;16.29;100.00
7376;BME280;3728;42.266;24.944;2022-11-06T15:47:56;99479.81;;;16.31;100.00
7376;BME280;3728;42.266;24.944;2022-11-06T15:56:00;99482.94;;;16.21;100.00
7376;BME280;3728;42.266;24.944;2022-11-06T15:58:35;99491.63;;;16.06;100.00
7376;BME280;3728;42.266;24.944;2022-11-06T16:01:05;99493.75;;;16.16;100.00
7376;BME280;3728;42.266;24.944;2022-11-06T16:03:51;99495.25;;;16.29;100.00
7376;BME280;3728;42.266;24.944;2022-11-06T16:06:20;99498.09;;;16.36;100.00
7376;BME280;3728;42.266;24.944;2022-11-06T16:08:48;99502.59;;;16.35;100.00
7376;BME280;3728;42.266;24.944;2022-11-06T16:11:19;99503.91;;;16.41;100.00
7376;BME280;3728;42.266;24.944;2022-11-06T16:13:47;99511.88;;;16.29;100.00
7376;BME280;3728;42.266;24.944;2022-11-06T16:16:38;99506.78;;;16.09;100.00
7376;BME280;3728;42.266;24.944;2022-11-06T16:24:43;99504.38;;;15.64;100.00